Time;durP1;ratioP1;P1;durP2;ratioP2;P2;SDS_P1;SDS_P2;PMS_P1;PMS_P2;Temp;Humidity;BMP_temperature;BMP_pressure;BME280_temperature;BME280_humidity;BME280_pressure;Samples;Min_cycle;Max_cycle;Signal;HPM_P1;HPM_P2
2022/07/11 00:01:11;;;;;;;;;8.00;7.00;;;;;23.63;51.91;100649.63;146608;569;46010;-69
2022/07/11 00:04:03;;;;;;;;;4.75;4.75;;;;;23.67;49.93;100639.91;146604;670;46014;-70
2022/07/11 00:06:56;;;;;;;;;8.75;7.75;;;;;23.69;48.44;100649.66;146606;611;46021;-67
2022/07/11 00:09:48;;;;;;;;;8.25;8.25;;;;;23.79;48.26;100650.50;146605;718;46016;-68
2022/07/11 00:12:40;;;;;;;;;9.00;9.00;;;;;23.92;48.90;100651.31;146606;620;46010;-67
2022/07/11 00:15:32;;;;;;;;;8.50;8.00;;;;;24.08;49.37;100646.81;146607;564;46016;-68
2022/07/11 00:18:25;;;;;;;;;5.00;5.00;;;;;24.18;48.48;100649.41;146609;654;46010;-68
2022/07/11 00:21:18;;;;;;;;;10.00;7.75;;;;;24.24;47.30;100648.50;146607;649;46016;-68
2022/07/11 00:24:10;;;;;;;;;9.00;7.00;;;;;24.31;48.31;100652.00;146607;574;47010;-68
2022/07/11 00:27:02;;;;;;;;;10.00;10.00;;;;;24.30;48.99;100651.13;146605;637;46014;-69
2022/07/11 00:29:54;;;;;;;;;10.75;9.00;;;;;24.30;49.97;100647.56;146609;633;45021;-69
2022/07/11 00:32:48;;;;;;;;;11.25;11.25;;;;;24.29;50.13;100654.63;146605;633;46012;-68
2022/07/11 00:35:40;;;;;;;;;12.50;10.50;;;;;23.31;50.20;100487.47;146608;589;46012;-70
2022/07/11 00:38:32;;;;;;;;;12.75;11.00;;;;;24.19;50.35;100650.28;146605;598;46016;-68
2022/07/11 00:41:25;;;;;;;;;10.25;10.25;;;;;24.18;51.05;100651.19;146607;563;46010;-69
2022/07/11 00:44:17;;;;;;;;;12.75;10.75;;;;;24.19;50.75;100648.53;146605;587;46016;-70
2022/07/11 00:47:09;;;;;;;;;10.25;9.25;;;;;24.17;50.77;100654.72;146607;564;46020;-69
2022/07/11 00:50:01;;;;;;;;;9.75;9.00;;;;;24.09;50.08;100651.25;146607;564;46013;-68
2022/07/11 00:52:56;;;;;;;;;10.25;9.75;;;;;24.07;50.54;100639.78;146607;704;46010;-69
2022/07/11 00:55:48;;;;;;;;;11.00;9.00;;;;;23.07;50.07;100472.59;146604;675;46916;-69
2022/07/11 00:58:41;;;;;;;;;10.00;10.00;;;;;24.09;50.51;100645.94;146606;669;46020;-68
2022/07/11 01:01:34;;;;;;;;;9.75;9.75;;;;;24.12;50.78;100653.87;146605;605;46016;-69
2022/07/11 01:04:26;;;;;;;;;8.25;6.00;;;;;24.12;47.66;100657.41;146609;599;46020;-70
2022/07/11 01:07:18;;;;;;;;;6.33;5.33;;;;;24.17;46.48;100652.97;146607;576;46016;-69
2022/07/11 01:10:11;;;;;;;;;6.25;5.50;;;;;24.24;44.09;100656.47;146608;563;46020;-70
2022/07/11 01:13:03;;;;;;;;;9.33;8.00;;;;;24.34;47.52;100650.22;146606;599;46917;-68
2022/07/11 01:16:09;;;;;;;;;7.75;7.75;;;;;24.45;48.83;100642.19;146608;597;46010;-70
2022/07/11 01:19:01;;;;;;;;;5.50;5.50;;;;;24.50;44.63;100658.97;146628;665;46012;-69
2022/07/11 01:21:56;;;;;;;;;5.50;5.50;;;;;24.55;47.32;100648.31;146631;643;44021;-69
2022/07/11 01:24:48;;;;;;;;;7.75;7.75;;;;;24.63;46.46;100659.75;146627;649;45915;-69
2022/07/11 01:27:40;;;;;;;;;7.00;7.00;;;;;24.68;44.23;100650.00;146631;669;45010;-71
2022/07/11 01:30:33;;;;;;;;;8.67;8.00;;;;;24.75;44.51;100649.06;146624;576;48915;-72
2022/07/11 01:33:25;;;;;;;;;6.33;6.00;;;;;24.80;43.66;100646.38;146631;571;45010;-70
2022/07/11 01:36:18;;;;;;;;;4.67;4.67;;;;;24.83;42.65;100635.75;146628;625;45915;-73
2022/07/11 01:39:10;;;;;;;;;7.25;5.00;;;;;24.88;42.63;100644.53;146629;696;46010;-75
2022/07/11 01:42:03;;;;;;;;;7.25;7.25;;;;;24.95;43.25;100640.91;146626;671;45030;-72
2022/07/11 01:44:55;;;;;;;;;5.33;5.00;;;;;24.95;43.68;100658.59;146633;578;45010;-76
2022/07/11 01:47:47;;;;;;;;;8.00;7.67;;;;;24.98;43.68;100659.44;146629;592;45016;-74
2022/07/11 01:50:40;;;;;;;;;6.67;6.00;;;;;24.98;42.66;100659.44;146628;588;45021;-70
2022/07/11 01:53:32;;;;;;;;;8.00;7.67;;;;;25.03;42.91;100662.06;146630;590;45034;-70
2022/07/11 01:56:27;;;;;;;;;6.75;6.75;;;;;24.97;44.43;100664.78;146631;629;45030;-74
2022/07/11 01:59:19;;;;;;;;;10.50;9.75;;;;;24.96;52.72;100671.88;146625;666;46016;-72
2022/07/11 02:02:11;;;;;;;;;10.00;9.00;;;;;24.91;48.33;100667.50;146627;576;45020;-69
2022/07/11 02:05:03;;;;;;;;;6.75;5.75;;;;;24.88;43.69;100649.81;146630;668;45013;-69
2022/07/11 02:11:23;;;;;;;;;6.00;6.00;;;;;24.89;42.01;100664.84;146629;565;45033;-69
2022/07/11 02:14:16;;;;;;;;;7.00;7.00;;;;;24.86;45.53;100665.78;146633;584;45010;-67
2022/07/11 02:17:08;;;;;;;;;6.00;6.00;;;;;24.91;45.29;100678.09;146619;575;46016;-68
2022/07/11 02:20:00;;;;;;;;;7.25;6.50;;;;;24.94;43.39;100670.13;146608;579;46021;-66
2022/07/11 02:22:52;;;;;;;;;8.00;7.00;;;;;24.95;47.90;100671.88;146606;617;47012;-70
2022/07/11 02:25:44;;;;;;;;;8.25;7.25;;;;;24.92;48.20;100685.16;146609;667;46021;-70
2022/07/11 02:28:36;;;;;;;;;10.00;8.25;;;;;24.87;45.62;100675.47;146606;702;46016;-68
2022/07/11 02:31:28;;;;;;;;;7.00;6.00;;;;;24.79;46.23;100687.91;146610;603;45020;-70
2022/07/11 02:34:20;;;;;;;;;8.00;8.00;;;;;24.82;47.51;100695.84;146605;699;46017;-70
2022/07/11 02:37:12;;;;;;;;;10.00;7.00;;;;;24.79;46.63;100692.34;146606;746;46020;-68
2022/07/11 02:40:05;;;;;;;;;5.00;5.00;;;;;24.76;43.85;100685.28;146607;564;46017;-68
2022/07/11 02:42:58;;;;;;;;;8.00;7.75;;;;;24.78;47.87;100703.84;146609;648;46010;-70
2022/07/11 02:45:50;;;;;;;;;8.00;7.00;;;;;24.74;47.17;100692.38;146605;569;47012;-70
2022/07/11 02:48:42;;;;;;;;;6.00;6.00;;;;;24.70;44.14;100687.09;146609;623;46021;-72
2022/07/11 02:51:34;;;;;;;;;7.75;7.75;;;;;24.69;47.17;100706.56;146606;693;46016;-71
2022/07/11 02:54:48;;;;;;;;;7.75;6.50;;;;;24.71;47.95;100702.13;146607;667;47012;-69
2022/07/11 02:57:40;;;;;;;;;6.67;6.67;;;;;24.73;46.84;100710.94;146607;566;46016;-69
2022/07/11 03:00:33;;;;;;;;;6.00;6.00;;;;;24.76;45.76;100697.66;146609;671;46020;-74
2022/07/11 03:03:25;;;;;;;;;7.25;6.50;;;;;24.76;44.53;100709.13;146604;739;47014;-69
2022/07/11 03:06:17;;;;;;;;;6.67;6.67;;;;;24.79;45.70;100718.84;146607;571;46012;-72
2022/07/11 03:09:10;;;;;;;;;7.33;7.33;;;;;24.81;46.67;100712.66;146607;569;46017;-72
2022/07/11 03:12:02;;;;;;;;;6.75;6.75;;;;;24.84;46.10;100725.88;146609;564;46010;-71
2022/07/11 03:14:54;;;;;;;;;6.00;5.00;;;;;24.85;45.17;100711.72;146608;582;46012;-70
2022/07/11 03:17:47;;;;;;;;;6.67;6.67;;;;;24.84;44.50;100730.31;146607;595;47010;-71
2022/07/11 03:20:39;;;;;;;;;7.33;6.33;;;;;24.82;44.50;100730.31;146607;589;46016;-71
2022/07/11 03:23:31;;;;;;;;;5.00;5.00;;;;;24.81;43.31;100727.69;146611;568;46020;-72
2022/07/11 03:26:23;;;;;;;;;5.00;5.00;;;;;24.83;44.81;100736.53;146604;644;46016;-72
2022/07/11 03:29:17;;;;;;;;;4.00;4.00;;;;;24.83;41.97;100726.78;146611;569;46028;-72
2022/07/11 03:32:10;;;;;;;;;5.33;5.00;;;;;24.82;42.65;100724.13;146607;675;47012;-71
2022/07/11 03:38:13;;;;;;;;;4.33;4.33;;;;;24.77;41.52;100733.91;146607;671;46016;-74
2022/07/11 03:41:05;;;;;;;;;3.33;3.33;;;;;24.74;40.97;100729.50;146609;661;46020;-72
2022/07/11 03:43:57;;;;;;;;;3.67;3.00;;;;;24.79;41.99;100738.28;146607;590;47014;-72
2022/07/11 03:46:50;;;;;;;;;4.00;4.00;;;;;24.81;41.28;100739.16;146607;566;47010;-72
2022/07/11 03:49:42;;;;;;;;;4.00;3.33;;;;;24.83;40.53;100732.09;146606;564;46016;-72
2022/07/11 03:52:34;;;;;;;;;3.00;3.00;;;;;24.86;41.34;100739.16;146609;648;46010;-74
2022/07/11 03:55:27;;;;;;;;;4.00;4.00;;;;;24.87;42.04;100741.78;146607;574;46013;-72
2022/07/11 03:58:19;;;;;;;;;4.00;3.00;;;;;24.89;42.83;100740.00;146611;590;45020;-71
2022/07/11 04:01:11;;;;;;;;;4.67;4.67;;;;;24.88;43.24;100740.00;146606;597;46016;-70
2022/07/11 04:04:03;;;;;;;;;5.67;5.67;;;;;24.87;43.19;100744.44;146608;596;46010;-72
2022/07/11 04:06:55;;;;;;;;;3.00;3.00;;;;;24.82;42.19;100746.22;146608;720;46012;-72
2022/07/11 04:09:48;;;;;;;;;4.00;4.00;;;;;24.82;42.97;100753.31;146609;616;46023;-72
2022/07/11 04:12:40;;;;;;;;;3.00;3.00;;;;;24.83;42.67;100752.44;146609;618;46012;-69
2022/07/11 04:15:32;;;;;;;;;4.75;4.75;;;;;24.82;42.76;100743.56;146608;702;46020;-72
2022/07/11 04:18:24;;;;;;;;;3.00;3.00;;;;;24.84;43.54;100748.87;146626;609;45918;-70
2022/07/11 04:21:16;;;;;;;;;3.75;3.75;;;;;24.86;43.30;100760.38;146628;608;45024;-74
2022/07/11 04:24:09;;;;;;;;;4.00;4.00;;;;;24.88;43.67;100762.09;146627;571;45016;-74
2022/07/11 04:27:01;;;;;;;;;5.75;4.75;;;;;24.92;43.20;100757.66;146626;664;45020;-70
2022/07/11 04:29:53;;;;;;;;;4.67;4.33;;;;;24.97;42.87;100769.13;146632;576;45012;-74
2022/07/11 04:32:46;;;;;;;;;3.00;3.00;;;;;24.97;40.98;100769.13;146628;625;45011;-74
2022/07/11 04:35:38;;;;;;;;;2.00;2.00;;;;;24.98;41.64;100765.56;146622;586;45016;-73
2022/07/11 04:38:30;;;;;;;;;5.00;4.00;;;;;24.99;42.96;100780.59;146629;581;45010;-74
2022/07/11 04:41:22;;;;;;;;;6.00;6.00;;;;;25.01;43.29;100778.81;146626;597;46012;-76
2022/07/11 04:44:14;;;;;;;;;3.75;3.75;;;;;25.03;44.08;100779.69;146626;687;46010;-77
2022/07/11 04:47:07;;;;;;;;;6.00;5.00;;;;;25.05;42.76;100788.53;146626;570;45017;-78
2022/07/11 04:49:59;;;;;;;;;5.00;5.00;;;;;25.07;42.59;100793.78;146625;643;45020;-77
2022/07/11 04:52:51;;;;;;;;;3.33;3.33;;;;;25.08;41.27;100783.19;146628;632;45016;-76
2022/07/11 04:55:43;;;;;;;;;5.00;4.67;;;;;25.07;41.51;100785.84;146629;583;45020;-77
2022/07/11 04:58:35;;;;;;;;;4.00;4.00;;;;;25.09;41.04;100781.41;146625;652;45014;-77
2022/07/11 05:01:28;;;;;;;;;3.00;3.00;;;;;25.05;40.06;100785.87;146626;590;46010;-76
2022/07/11 05:04:20;;;;;;;;;4.00;4.00;;;;;25.02;41.89;100785.87;146627;624;45016;-76
2022/07/11 05:07:13;;;;;;;;;5.00;4.67;;;;;25.02;41.19;100790.31;146631;585;45010;-75
2022/07/11 05:10:06;;;;;;;;;4.75;4.75;;;;;25.03;41.90;100790.28;146627;603;45016;-76
2022/07/11 05:12:58;;;;;;;;;4.00;4.00;;;;;25.05;40.66;100807.09;146628;672;45020;-78
2022/07/11 05:15:49;;;;;;;;;7.00;5.33;;;;;25.09;42.05;100799.97;146628;621;45029;-77
2022/07/11 05:18:42;;;;;;;;;4.00;3.67;;;;;25.12;41.39;100811.50;146631;596;45010;-78
2022/07/11 05:21:34;;;;;;;;;3.25;3.25;;;;;25.15;41.05;100815.91;146625;587;46917;-77
2022/07/11 05:24:26;;;;;;;;;4.50;4.50;;;;;25.14;39.96;100821.19;146630;590;45010;-74
2022/07/11 05:27:18;;;;;;;;;4.25;4.25;;;;;25.15;42.45;100821.19;146622;641;45016;-71
2022/07/11 05:30:12;;;;;;;;;4.33;4.33;;;;;25.17;42.15;100824.75;146629;603;45020;-73
2022/07/11 05:33:04;;;;;;;;;4.00;3.67;;;;;25.22;41.94;100820.25;146628;584;45917;-72
2022/07/11 05:35:56;;;;;;;;;5.00;5.00;;;;;25.27;42.09;100826.41;146630;601;45020;-74
2022/07/11 05:38:48;;;;;;;;;5.00;4.00;;;;;25.31;41.82;100817.53;146631;655;45013;-72
2022/07/11 05:41:40;;;;;;;;;6.00;6.00;;;;;25.31;40.72;100825.50;146631;579;45010;-75
2022/07/11 05:44:32;;;;;;;;;4.67;4.33;;;;;25.27;41.23;100837.03;146631;585;45034;-72
2022/07/11 05:47:24;;;;;;;;;5.00;5.00;;;;;25.22;43.13;100832.66;146629;634;46010;-70
2022/07/11 05:50:16;;;;;;;;;5.00;5.00;;;;;25.25;44.20;100841.47;146627;571;45012;-69
2022/07/11 05:53:09;;;;;;;;;7.50;7.50;;;;;25.31;44.18;100844.06;146631;608;45012;-71
2022/07/11 05:56:01;;;;;;;;;7.00;7.00;;;;;25.38;44.80;100844.91;146629;573;45014;-72
2022/07/11 05:58:53;;;;;;;;;8.00;8.00;;;;;25.45;45.36;100843.06;146629;694;45020;-72
2022/07/11 06:01:46;;;;;;;;;6.00;6.00;;;;;25.51;45.78;100848.34;146628;637;45017;-72
2022/07/11 06:04:38;;;;;;;;;6.00;6.00;;;;;25.57;46.78;100854.47;146629;604;45020;-72
2022/07/11 06:10:40;;;;;;;;;5.33;5.33;;;;;25.72;46.97;100874.72;146629;592;45020;-73
2022/07/11 06:13:32;;;;;;;;;6.00;4.67;;;;;25.83;46.96;100879.97;146627;642;46012;-72
2022/07/11 06:16:24;;;;;;;;;7.00;5.00;;;;;25.94;46.95;100886.06;146626;586;46012;-72
2022/07/11 06:19:16;;;;;;;;;6.75;6.75;;;;;26.10;47.78;100893.88;146605;683;46025;-72
2022/07/11 06:22:08;;;;;;;;;6.67;6.00;;;;;26.22;46.94;100891.09;146610;570;46013;-73
2022/07/11 06:25:01;;;;;;;;;5.00;5.00;;;;;26.34;45.33;100890.09;146605;606;46016;-71
2022/07/11 06:27:53;;;;;;;;;4.00;3.00;;;;;26.45;44.00;100899.72;146606;591;46020;-73
2022/07/11 06:30:45;;;;;;;;;4.00;4.00;;;;;26.49;41.27;100900.59;146604;599;46014;-76
2022/07/11 06:33:37;;;;;;;;;5.67;4.33;;;;;26.52;41.28;100895.25;146608;586;46020;-76
2022/07/11 06:36:29;;;;;;;;;5.00;5.00;;;;;26.55;40.91;100902.31;146606;583;46016;-80
2022/07/11 06:39:22;;;;;;;;;4.00;4.00;;;;;26.58;40.33;100896.97;146610;583;46010;-82
2022/07/11 06:42:13;;;;;;;;;5.33;5.33;;;;;26.63;40.40;100898.63;146608;584;46012;-81
2022/07/11 06:45:06;;;;;;;;;5.33;4.33;;;;;26.73;40.15;100899.44;146609;635;46011;-81
2022/07/11 06:47:58;;;;;;;;;6.00;5.00;;;;;26.88;39.78;100904.53;146605;617;46016;-80
2022/07/11 06:50:51;;;;;;;;;4.00;4.00;;;;;27.06;40.57;100907.84;146608;617;46032;-80
2022/07/11 06:53:43;;;;;;;;;9.75;8.75;;;;;27.37;40.20;100913.66;146605;644;46016;-82
2022/07/11 06:56:36;;;;;;;;;8.33;7.67;;;;;27.83;39.31;100902.28;146607;569;46020;-82
2022/07/11 06:59:28;;;;;;;;;5.00;4.00;;;;;28.30;39.66;100904.09;146605;587;46016;-81
2022/07/11 07:02:23;;;;;;;;;4.00;4.00;;;;;28.72;36.72;100908.63;146607;580;46020;-80
2022/07/11 07:05:15;;;;;;;;;3.67;3.67;;;;;29.07;35.60;100904.38;146605;589;46016;-80
2022/07/11 07:08:07;;;;;;;;;3.00;3.00;;;;;29.40;37.16;100908.03;146608;606;46021;-80
2022/07/11 07:11:01;;;;;;;;;5.00;5.00;;;;;29.63;37.08;100907.53;146606;569;46012;-80
2022/07/11 07:13:53;;;;;;;;;4.00;4.00;;;;;29.62;36.17;100903.97;146609;593;46020;-82
2022/07/11 07:16:45;;;;;;;;;4.33;3.00;;;;;29.49;35.82;100906.94;146608;628;46012;-81
2022/07/11 07:19:37;;;;;;;;;2.00;2.00;;;;;29.45;36.05;100906.16;146610;563;46010;-81
2022/07/11 07:22:29;;;;;;;;;4.00;3.00;;;;;29.49;36.39;100901.59;146607;569;46012;-80
2022/07/11 07:25:21;;;;;;;;;4.33;3.00;;;;;29.54;34.33;100902.38;146606;616;46020;-82
2022/07/11 07:28:13;;;;;;;;;5.00;5.00;;;;;29.57;35.34;100900.50;146606;598;47012;-82
2022/07/11 07:31:05;;;;;;;;;6.00;4.00;;;;;29.70;35.56;100906.44;146608;597;46010;-81
2022/07/11 07:33:57;;;;;;;;;5.67;3.33;;;;;28.94;34.29;100755.13;146607;586;46918;-81
2022/07/11 07:36:50;;;;;;;;;2.00;2.00;;;;;29.87;33.89;100906.88;146608;566;47010;-81
2022/07/11 07:39:42;;;;;;;;;4.33;4.33;;;;;29.96;35.24;100904.91;146607;570;46016;-82
2022/07/11 07:42:34;;;;;;;;;4.67;4.67;;;;;30.11;34.87;100908.03;146608;571;46020;-82
2022/07/11 07:45:26;;;;;;;;;4.33;3.33;;;;;30.30;34.01;100899.56;146607;613;46012;-81
2022/07/11 07:48:19;;;;;;;;;4.00;4.00;;;;;30.41;33.23;100905.50;146609;632;46020;-82
2022/07/11 07:51:11;;;;;;;;;5.00;4.67;;;;;30.46;34.24;100900.88;146606;575;46017;-81
2022/07/11 07:54:03;;;;;;;;;3.00;2.67;;;;;30.52;34.80;100908.72;146609;621;46010;-80
2022/07/11 07:56:56;;;;;;;;;2.33;2.33;;;;;30.59;33.62;100906.75;146607;623;46014;-81
2022/07/11 07:59:49;;;;;;;;;3.67;3.67;;;;;30.72;33.86;100909.97;146609;570;46010;-81
2022/07/11 08:02:40;;;;;;;;;3.00;3.00;;;;;30.80;34.07;100905.28;146609;666;46012;-80
2022/07/11 08:05:33;;;;;;;;;3.33;3.33;;;;;30.91;34.21;100907.66;146608;593;46021;-80
2022/07/11 08:08:25;;;;;;;;;2.67;2.67;;;;;31.05;32.83;100902.75;146604;625;46016;-81
2022/07/11 08:11:18;;;;;;;;;3.00;3.00;;;;;31.12;28.89;100900.75;146609;673;46020;-82
2022/07/11 08:14:10;;;;;;;;;3.67;3.00;;;;;31.15;33.13;100904.19;146608;635;46012;-82
2022/07/11 08:17:03;;;;;;;;;3.00;3.00;;;;;31.21;32.13;100904.00;146609;577;46020;-83
2022/07/11 08:19:54;;;;;;;;;3.33;3.33;;;;;31.30;32.27;100903.72;146605;578;46016;-81
2022/07/11 08:22:47;;;;;;;;;3.00;3.00;;;;;31.40;33.04;100892.75;146608;578;46010;-81
2022/07/11 08:25:39;;;;;;;;;4.00;4.00;;;;;31.50;32.50;100891.53;146609;586;46012;-82
2022/07/11 08:28:31;;;;;;;;;2.00;2.00;;;;;31.61;32.59;100896.53;146610;571;47010;-82
2022/07/11 08:31:24;;;;;;;;;3.00;3.00;;;;;31.69;32.93;100895.34;146606;647;46016;-79
2022/07/11 08:34:16;;;;;;;;;3.33;3.33;;;;;31.83;34.10;100904.72;146608;569;46020;-80
2022/07/11 08:37:08;;;;;;;;;3.00;3.00;;;;;31.95;33.56;100896.28;146607;635;46017;-81
2022/07/11 08:40:00;;;;;;;;;4.67;4.67;;;;;32.13;32.55;100887.59;146609;619;47010;-79
2022/07/11 08:42:52;;;;;;;;;3.00;3.00;;;;;32.25;32.64;100896.16;146606;677;47012;-80
2022/07/11 08:45:45;;;;;;;;;3.00;3.00;;;;;32.38;32.35;100889.41;146607;635;47012;-80
2022/07/11 08:48:37;;;;;;;;;4.00;4.00;;;;;32.51;30.87;100887.16;146605;644;46918;-79
2022/07/11 08:51:31;;;;;;;;;3.33;2.00;;;;;32.58;31.67;100888.69;146608;592;47010;-80
2022/07/11 08:54:23;;;;;;;;;4.00;4.00;;;;;32.58;31.32;100888.69;146607;569;46012;-82
2022/07/11 08:57:17;;;;;;;;;3.00;2.00;;;;;32.61;31.57;100894.81;146610;637;46010;-81
2022/07/11 09:00:12;;;;;;;;;2.67;2.00;;;;;32.66;31.51;100889.28;146605;662;46016;-81
2022/07/11 09:03:06;;;;;;;;;1.00;1.00;;;;;32.74;31.12;100886.28;146611;578;46010;-80
2022/07/11 09:05:58;;;;;;;;;4.00;2.67;;;;;32.83;31.37;100891.31;146607;625;46013;-81
2022/07/11 09:09:00;;;;;;;;;3.33;3.33;;;;;32.84;30.82;100888.56;146608;606;46020;-79
2022/07/11 09:12:00;;;;;;;;;2.67;2.33;;;;;32.91;31.06;100891.03;146606;595;46016;-87
2022/07/11 09:14:54;;;;;;;;;2.33;2.33;;;;;32.90;30.46;100887.47;146607;593;46021;-81
2022/07/11 09:17:46;;;;;;;;;4.00;4.00;;;;;32.93;29.78;100890.03;146607;610;46016;-81
2022/07/11 09:27:25;;;;;;;;;4.50;4.00;;;;;32.82;33.95;100894.94;146603;634;46020;-81
2022/07/11 09:30:43;;;;;;;;;4.67;4.67;;;;;32.66;35.02;100902.69;146607;648;46016;-81
2022/07/11 09:33:35;;;;;;;;;2.33;2.33;;;;;32.55;29.87;100907.56;146609;626;45020;-77
2022/07/11 09:36:41;;;;;;;;;2.00;2.00;;;;;32.54;31.05;100905.84;146607;571;46014;-81
2022/07/11 09:39:33;;;;;;;;;4.50;4.50;;;;;32.57;33.49;100903.03;146608;569;46010;-81
2022/07/11 09:42:26;;;;;;;;;5.00;5.00;;;;;32.47;33.77;100915.94;146602;636;46017;-80
2022/07/11 09:45:19;;;;;;;;;6.00;5.25;;;;;32.18;33.18;100907.09;146607;627;46010;-80
2022/07/11 09:48:16;;;;;;;;;4.33;4.33;;;;;32.04;34.81;100904.00;146606;570;46016;-81
2022/07/11 09:51:08;;;;;;;;;4.00;4.00;;;;;31.92;35.77;100904.44;146607;626;46010;-83
2022/07/11 09:54:01;;;;;;;;;2.00;2.00;;;;;31.97;32.59;100915.91;146607;587;46918;-83
2022/07/11 09:56:53;;;;;;;;;2.00;2.00;;;;;32.12;31.56;100912.69;146612;576;45021;-84
2022/07/11 09:59:46;;;;;;;;;3.00;3.00;;;;;32.25;29.53;100909.56;146606;609;46016;-81
2022/07/11 10:02:38;;;;;;;;;3.00;2.00;;;;;32.39;30.20;100917.97;146607;660;46020;-82
2022/07/11 10:05:32;;;;;;;;;2.67;2.67;;;;;32.50;28.30;100907.75;146606;583;47014;-83
2022/07/11 10:08:25;;;;;;;;;3.00;3.00;;;;;32.57;27.99;100900.34;146607;570;46020;-85
2022/07/11 10:11:17;;;;;;;;;3.67;3.33;;;;;32.58;28.20;100908.34;146607;566;46015;-85
2022/07/11 10:14:10;;;;;;;;;5.67;4.67;;;;;32.62;29.68;100903.75;146609;570;46021;-80
2022/07/11 10:17:22;;;;;;;;;2.67;2.67;;;;;32.70;31.87;100907.00;146607;577;46918;-81
2022/07/11 10:20:51;;;;;;;;;2.67;2.67;;;;;32.77;31.88;100903.16;146608;564;46010;-82
2022/07/11 10:24:34;;;;;;;;;2.67;2.00;;;;;32.84;33.27;100890.38;146608;628;45916;-82
2022/07/11 10:28:10;;;;;;;;;3.00;3.00;;;;;31.23;33.30;100617.34;146612;569;46020;-79
2022/07/11 10:31:03;;;;;;;;;2.00;2.00;;;;;32.95;30.84;100903.38;146607;576;46016;-81
2022/07/11 10:34:18;;;;;;;;;2.67;2.67;;;;;32.98;31.28;100909.53;146610;588;45020;-80
2022/07/11 10:37:13;;;;;;;;;4.75;3.50;;;;;32.99;29.00;100903.25;146607;689;46016;-80
2022/07/11 10:40:05;;;;;;;;;2.00;2.00;;;;;33.03;29.52;100899.50;146610;585;46020;-80
2022/07/11 10:42:57;;;;;;;;;2.75;2.75;;;;;33.11;28.58;100891.13;146607;595;46014;-81
2022/07/11 10:46:24;;;;;;;;;3.00;2.50;;;;;33.15;31.96;100897.25;146611;609;46010;-79
2022/07/11 10:49:26;;;;;;;;;4.00;3.33;;;;;33.18;31.46;100892.66;146608;566;46017;-81
2022/07/11 10:52:26;;;;;;;;;3.00;2.67;;;;;33.29;31.09;100878.75;146607;586;46010;-80
2022/07/11 10:55:51;;;;;;;;;1.75;1.75;;;;;32.23;28.16;100702.16;146605;632;46017;-78
2022/07/11 10:58:46;;;;;;;;;4.00;4.00;;;;;33.24;29.17;100887.03;146608;565;46010;-81
2022/07/11 11:01:38;;;;;;;;;4.75;4.75;;;;;33.32;29.84;100873.25;146604;612;46016;-82
2022/07/11 11:05:05;;;;;;;;;3.50;3.50;;;;;32.45;32.18;100707.56;146608;681;46011;-78
2022/07/11 11:07:57;;;;;;;;;4.00;3.25;;;;;33.56;28.58;100885.72;146609;570;46916;-81
2022/07/11 11:10:49;;;;;;;;;5.00;5.00;;;;;33.59;30.58;100883.88;146608;657;46020;-81
2022/07/11 11:13:41;;;;;;;;;4.00;4.00;;;;;33.54;28.76;100878.66;146606;577;46016;-77
2022/07/11 11:16:34;;;;;;;;;4.75;3.25;;;;;33.48;29.45;100886.94;146608;688;46010;-79
2022/07/11 11:20:10;;;;;;;;;4.00;4.00;;;;;33.46;31.53;100875.38;146606;601;46028;-81
2022/07/11 11:23:14;;;;;;;;;6.50;6.25;;;;;33.53;32.56;100880.47;146606;565;46020;-81
2022/07/11 11:26:14;;;;;;;;;5.00;5.00;;;;;33.61;31.24;100873.91;146607;567;46017;-80
2022/07/11 11:29:10;;;;;;;;;5.00;5.00;;;;;33.72;30.64;100874.31;146610;606;46010;-81
2022/07/11 11:32:03;;;;;;;;;5.00;5.00;;;;;33.83;28.99;100881.91;146606;590;46016;-80
2022/07/11 11:34:56;;;;;;;;;5.00;5.00;;;;;33.85;28.10;100867.47;146605;654;46021;-80
2022/07/11 11:37:48;;;;;;;;;4.00;4.00;;;;;33.86;29.49;100868.34;146605;602;46016;-80
2022/07/11 11:40:50;;;;;;;;;5.00;4.75;;;;;33.92;27.40;100873.44;146609;682;46021;-81
2022/07/11 11:43:42;;;;;;;;;4.75;4.75;;;;;33.89;26.19;100869.06;146605;685;45016;-81
2022/07/11 11:46:36;;;;;;;;;5.00;5.00;;;;;33.78;29.00;100874.06;146608;628;46020;-81
2022/07/11 11:49:28;;;;;;;;;4.50;4.50;;;;;33.79;28.99;100868.59;146604;632;46919;-81
2022/07/11 11:52:23;;;;;;;;;6.00;4.50;;;;;33.83;29.02;100853.19;146608;683;47010;-81
2022/07/11 11:55:16;;;;;;;;;7.00;7.00;;;;;33.83;29.72;100863.97;146607;712;46013;-81
2022/07/11 11:58:08;;;;;;;;;4.75;3.50;;;;;33.70;30.50;100857.37;146609;651;46020;-80
2022/07/11 12:01:01;;;;;;;;;4.75;4.75;;;;;33.55;31.35;100859.78;146607;575;46012;-80
2022/07/11 12:03:58;;;;;;;;;4.25;4.25;;;;;33.18;28.62;100863.09;146609;707;46011;-83
2022/07/11 12:06:51;;;;;;;;;5.00;4.00;;;;;32.82;29.92;100860.87;146607;564;47012;-81
2022/07/11 12:09:46;;;;;;;;;5.00;5.00;;;;;32.63;32.26;100867.91;146608;574;46020;-80
2022/07/11 12:12:45;;;;;;;;;5.50;5.50;;;;;32.58;32.41;100848.41;146607;652;46012;-81
2022/07/11 12:16:39;;;;;;;;;4.00;4.00;;;;;32.58;32.08;100853.78;146610;602;46020;-80
2022/07/11 12:18:49;;;;;;;;;4.67;4.67;;;;;32.44;33.02;100848.94;146630;616;46012;-80
2022/07/11 12:21:42;;;;;;;;;6.00;6.00;;;;;31.49;32.79;100715.56;146625;703;45010;-81
2022/07/11 12:24:35;;;;;;;;;6.75;6.75;;;;;32.16;32.42;100855.28;146627;610;45015;-80
2022/07/11 12:27:29;;;;;;;;;7.00;6.00;;;;;32.01;33.96;100841.56;146627;563;45021;-79
2022/07/11 12:30:28;;;;;;;;;5.75;5.50;;;;;31.90;34.62;100845.50;146628;667;46012;-81
2022/07/11 12:33:21;;;;;;;;;4.00;4.00;;;;;31.80;33.50;100860.13;146628;573;46010;-77
2022/07/11 12:36:13;;;;;;;;;5.33;4.67;;;;;31.70;34.08;100847.97;146630;650;45012;-80
2022/07/11 12:39:05;;;;;;;;;6.25;5.75;;;;;31.69;33.96;100844.41;146630;588;45020;-82
2022/07/11 12:41:58;;;;;;;;;5.00;5.00;;;;;31.68;33.50;100849.81;146628;569;45016;-79
2022/07/11 12:45:08;;;;;;;;;3.67;3.67;;;;;31.64;33.88;100846.38;146629;653;45020;-81
2022/07/11 12:48:00;;;;;;;;;5.67;5.67;;;;;31.56;32.20;100842.19;146628;711;45016;-84
2022/07/11 12:50:53;;;;;;;;;4.25;4.25;;;;;31.47;33.50;100846.94;146628;619;46010;-83
2022/07/11 12:53:45;;;;;;;;;5.75;5.75;;;;;30.49;33.11;100688.53;146632;598;44016;-84
2022/07/11 12:56:38;;;;;;;;;5.00;5.00;;;;;31.15;34.03;100826.53;146630;654;45915;-82
2022/07/11 12:59:31;;;;;;;;;4.50;4.50;;;;;31.14;33.83;100832.81;146624;634;45918;-79
2022/07/11 13:02:26;;;;;;;;;5.00;4.00;;;;;31.04;32.35;100831.38;146629;607;45020;-83
2022/07/11 13:05:19;;;;;;;;;6.25;6.00;;;;;30.99;33.70;100830.63;146625;712;45016;-81
2022/07/11 13:11:25;;;;;;;;;6.50;6.50;;;;;31.06;32.98;100832.22;146629;604;45010;-78
2022/07/11 13:17:27;;;;;;;;;4.50;4.50;;;;;31.05;34.00;100827.75;146618;698;46013;-81
2022/07/11 13:20:22;;;;;;;;;5.75;5.50;;;;;30.93;33.79;100836.19;146605;668;46020;-80
2022/07/11 13:23:13;;;;;;;;;5.00;5.00;;;;;30.80;33.85;100839.22;146605;605;46918;-83
2022/07/11 13:26:06;;;;;;;;;4.75;4.00;;;;;30.73;33.04;100842.12;146608;631;46020;-79
2022/07/11 13:28:59;;;;;;;;;4.33;4.33;;;;;30.57;34.15;100836.38;146606;630;47012;-81
2022/07/11 13:31:51;;;;;;;;;4.33;4.33;;;;;30.51;34.55;100833.87;146608;576;47011;-81
2022/07/11 13:34:43;;;;;;;;;6.00;5.00;;;;;30.52;35.22;100838.28;146605;592;47012;-81
2022/07/11 13:37:38;;;;;;;;;5.00;5.00;;;;;30.57;35.98;100836.38;146609;602;46010;-79
2022/07/11 13:40:29;;;;;;;;;6.75;5.75;;;;;30.63;35.07;100836.19;146606;576;46035;-80
2022/07/11 13:43:22;;;;;;;;;5.50;5.50;;;;;30.68;36.37;100844.06;146607;721;46020;-81
2022/07/11 13:46:14;;;;;;;;;3.33;3.33;;;;;30.70;36.19;100837.75;146608;611;46012;-80
2022/07/11 13:49:06;;;;;;;;;5.33;5.33;;;;;30.74;36.02;100844.75;146605;570;46021;-79
2022/07/11 13:51:58;;;;;;;;;5.67;4.67;;;;;30.78;35.34;100840.19;146607;681;46012;-81